createdAt,value
2019-05-02T00:00:19.805Z,33.10
2019-05-02T00:01:19.842Z,35.40
2019-05-02T00:02:24.052Z,34.10
2019-05-02T00:03:19.926Z,33.50
2019-05-02T00:04:21.239Z,34.80
2019-05-02T00:05:19.997Z,34.40
2019-05-02T00:06:20.037Z,35.10
2019-05-02T00:07:21.732Z,35.10
2019-05-02T00:08:20.115Z,35.60
2019-05-02T00:09:20.154Z,36.60
2019-05-02T00:10:24.956Z,37.00
2019-05-02T00:11:20.233Z,35.50
2019-05-02T00:12:20.272Z,36.10
2019-05-02T00:13:20.312Z,35.60
2019-05-02T00:14:20.350Z,36.10
2019-05-02T00:15:20.388Z,36.30
2019-05-02T00:16:20.435Z,35.70
2019-05-02T00:17:25.841Z,34.90
2019-05-02T00:18:20.505Z,35.40
2019-05-02T00:19:20.551Z,35.00
2019-05-02T00:20:21.101Z,34.40
2019-05-02T00:21:20.622Z,35.90
2019-05-02T00:22:20.661Z,35.40
2019-05-02T00:23:22.986Z,36.00
2019-05-02T00:24:20.741Z,36.10
2019-05-02T00:25:20.778Z,35.80
2019-05-02T00:26:24.526Z,35.80
2019-05-02T00:27:20.865Z,34.50
2019-05-02T00:28:20.902Z,36.40
2019-05-02T00:29:23.750Z,37.70
2019-05-02T00:30:20.974Z,35.90
2019-05-02T00:31:21.020Z,36.00
2019-05-02T00:32:22.569Z,37.00
2019-05-02T00:33:21.088Z,36.20
2019-05-02T00:34:21.127Z,36.90
2019-05-02T00:35:21.170Z,37.10
2019-05-02T00:36:21.204Z,36.60
2019-05-02T00:37:24.720Z,37.30
2019-05-02T00:38:21.282Z,36.00
2019-05-02T00:39:21.324Z,34.50
2019-05-02T00:40:25.688Z,37.30
2019-05-02T00:41:21.399Z,38.00
2019-05-02T00:42:22.398Z,35.90
2019-05-02T00:43:21.473Z,37.40
2019-05-02T00:44:21.515Z,37.70
2019-05-02T00:45:23.982Z,36.40
2019-05-02T00:46:21.591Z,35.50
2019-05-02T00:47:21.655Z,35.00
2019-05-02T00:48:23.148Z,36.40
2019-05-02T00:49:21.712Z,36.30
2019-05-02T00:50:21.746Z,35.20
2019-05-02T00:51:21.948Z,36.00
2019-05-02T00:52:21.830Z,35.90
2019-05-02T00:53:21.870Z,35.50
2019-05-02T00:54:24.262Z,36.00
2019-05-02T00:55:21.940Z,37.40
2019-05-02T00:56:21.981Z,36.80
2019-05-02T00:57:22.024Z,37.40
2019-05-02T00:58:22.058Z,37.30
2019-05-02T00:59:22.095Z,36.60
2019-05-02T01:00:22.136Z,37.30
2019-05-02T01:01:24.332Z,37.70
2019-05-02T01:02:22.212Z,36.60
2019-05-02T01:03:22.249Z,38.20
2019-05-02T01:04:23.331Z,38.60
2019-05-02T01:05:22.331Z,38.60
2019-05-02T01:06:22.365Z,39.90
2019-05-02T01:07:25.562Z,38.50
2019-05-02T01:08:22.442Z,37.30
2019-05-02T01:09:22.480Z,36.10
2019-05-02T01:10:22.590Z,37.90
2019-05-02T01:11:22.557Z,36.10
2019-05-02T01:12:26.535Z,36.10
2019-05-02T01:13:22.652Z,35.90
2019-05-02T01:14:26.816Z,36.10
2019-05-02T01:15:22.716Z,35.10
2019-05-02T01:16:22.750Z,36.30
2019-05-02T01:17:26.031Z,34.30
2019-05-02T01:18:22.827Z,36.20
2019-05-02T01:19:22.865Z,37.60
2019-05-02T01:20:27.595Z,37.10
2019-05-02T01:21:22.943Z,36.80
2019-05-02T01:22:22.981Z,35.30
2019-05-02T01:23:27.149Z,37.00
2019-05-02T01:24:23.060Z,35.10
2019-05-02T01:25:23.101Z,35.90
2019-05-02T01:26:24.227Z,37.40
2019-05-02T01:27:23.174Z,36.80
2019-05-02T01:28:23.214Z,37.00
2019-05-02T01:29:24.910Z,36.70
2019-05-02T01:30:23.290Z,36.70
2019-05-02T01:31:23.327Z,36.40
2019-05-02T01:32:25.137Z,36.00
2019-05-02T01:33:23.412Z,35.70
2019-05-02T01:34:23.442Z,36.30
2019-05-02T01:35:27.052Z,34.90
2019-05-02T01:36:23.521Z,35.90
2019-05-02T01:37:23.556Z,35.00
2019-05-02T01:38:26.273Z,36.00
2019-05-02T01:39:23.632Z,35.80
2019-05-02T01:40:23.680Z,35.80
2019-05-02T01:41:28.554Z,36.80
2019-05-02T01:42:23.751Z,37.00
2019-05-02T01:43:25.348Z,36.10
2019-05-02T01:44:23.825Z,36.00
2019-05-02T01:45:23.866Z,35.20
2019-05-02T01:46:24.186Z,36.00
2019-05-02T01:47:23.942Z,34.90
2019-05-02T01:48:23.978Z,36.10
2019-05-02T01:49:24.016Z,37.50
2019-05-02T01:50:24.055Z,37.50
2019-05-02T01:51:24.093Z,37.00
2019-05-02T01:52:24.961Z,36.10
2019-05-02T01:53:24.168Z,37.60
2019-05-02T01:54:24.209Z,37.10
2019-05-02T01:55:24.245Z,38.20
2019-05-02T01:56:24.285Z,36.90
2019-05-02T01:57:24.323Z,36.20
2019-05-02T01:58:24.360Z,37.30
2019-05-02T01:59:24.399Z,37.50
2019-05-02T02:00:24.448Z,37.90
2019-05-02T02:01:24.482Z,37.10
2019-05-02T02:02:28.059Z,38.30
2019-05-02T02:03:24.552Z,37.90
2019-05-02T02:04:24.615Z,37.60
2019-05-02T02:05:27.552Z,37.50
2019-05-02T02:06:24.670Z,37.80
2019-05-02T02:07:24.704Z,38.30
2019-05-02T02:08:27.233Z,37.70
2019-05-02T02:09:24.781Z,37.90
2019-05-02T02:10:24.822Z,38.00
2019-05-02T02:11:28.471Z,38.80
2019-05-02T02:12:24.896Z,38.00
2019-05-02T02:13:24.935Z,38.10
2019-05-02T02:14:24.974Z,37.60
2019-05-02T02:15:28.933Z,38.40
2019-05-02T02:16:25.059Z,37.30
2019-05-02T02:17:25.089Z,37.60
2019-05-02T02:18:27.494Z,38.20
2019-05-02T02:19:25.164Z,37.30
2019-05-02T02:20:25.210Z,37.10
2019-05-02T02:21:27.365Z,38.80
2019-05-02T02:22:25.279Z,36.20
2019-05-02T02:23:25.318Z,36.30
2019-05-02T02:24:26.386Z,37.20
2019-05-02T02:25:25.394Z,35.20
2019-05-02T02:26:25.435Z,36.70
2019-05-02T02:27:25.810Z,35.30
2019-05-02T02:28:25.514Z,35.80
2019-05-02T02:29:25.550Z,35.30
2019-05-02T02:30:26.692Z,35.40
2019-05-02T02:31:25.625Z,35.90
2019-05-02T02:32:26.791Z,37.10
2019-05-02T02:33:25.702Z,36.20
2019-05-02T02:34:29.279Z,38.00
2019-05-02T02:35:25.777Z,38.80
2019-05-02T02:36:31.261Z,37.10
2019-05-02T02:37:25.852Z,38.40
2019-05-02T02:38:26.740Z,38.00
2019-05-02T02:39:25.935Z,36.50
2019-05-02T02:40:32.572Z,36.80
2019-05-02T02:41:26.004Z,36.60
2019-05-02T02:42:31.653Z,36.70
2019-05-02T02:43:34.345Z,37.30
2019-05-02T02:44:26.120Z,37.10
2019-05-02T02:45:26.156Z,37.20
2019-05-02T02:46:30.681Z,36.10
2019-05-02T02:47:26.236Z,36.90
2019-05-02T02:48:26.281Z,34.80
2019-05-02T02:49:26.310Z,34.60
2019-05-02T02:50:26.348Z,35.00
2019-05-02T02:51:26.562Z,33.80
2019-05-02T02:52:26.423Z,34.20
2019-05-02T02:53:26.463Z,34.80
2019-05-02T02:54:26.515Z,35.00
2019-05-02T02:55:26.540Z,35.30
2019-05-02T02:56:26.578Z,35.90
2019-05-02T02:57:28.495Z,33.50
2019-05-02T02:58:26.654Z,35.40
2019-05-02T02:59:28.207Z,34.30
2019-05-02T03:00:26.730Z,35.50
2019-05-02T03:01:29.332Z,34.00
2019-05-02T03:02:26.804Z,33.60
2019-05-02T03:03:28.115Z,35.40
2019-05-02T03:04:26.881Z,35.30
2019-05-02T03:05:27.800Z,33.90
2019-05-02T03:06:26.961Z,33.90
2019-05-02T03:07:28.936Z,35.70
2019-05-02T03:08:27.033Z,35.20
2019-05-02T03:09:28.876Z,34.90
2019-05-02T03:10:27.120Z,34.90
2019-05-02T03:11:27.146Z,35.40
2019-05-02T03:12:27.187Z,34.80
2019-05-02T03:13:27.234Z,33.00
2019-05-02T03:14:27.261Z,34.30
2019-05-02T03:15:28.258Z,33.70
2019-05-02T03:16:27.338Z,35.10
2019-05-02T03:17:28.736Z,34.40
2019-05-02T03:18:27.414Z,33.20
2019-05-02T03:19:27.453Z,32.70
2019-05-02T03:20:27.491Z,31.70
2019-05-02T03:21:27.529Z,33.90
2019-05-02T03:22:27.572Z,33.60
2019-05-02T03:23:27.606Z,33.20
2019-05-02T03:24:27.645Z,34.80
2019-05-02T03:25:49.206Z,34.60
2019-05-02T03:26:27.719Z,33.70
2019-05-02T03:27:29.920Z,35.50
2019-05-02T03:28:27.796Z,34.80
2019-05-02T03:29:39.116Z,33.90
2019-05-02T03:30:36.954Z,34.10
2019-05-02T03:31:30.304Z,34.50
2019-05-02T03:32:34.254Z,34.40
2019-05-02T03:33:27.986Z,35.20
2019-05-02T03:34:45.480Z,35.80
2019-05-02T03:35:43.126Z,35.40
2019-05-02T03:36:34.901Z,35.80
2019-05-02T03:37:28.139Z,35.90
2019-05-02T03:38:32.766Z,35.80
2019-05-02T03:39:28.212Z,36.10
2019-05-02T03:40:32.333Z,34.00
2019-05-02T03:41:28.288Z,34.40
2019-05-02T03:42:28.329Z,33.90
2019-05-02T03:43:28.366Z,33.60
2019-05-02T03:44:28.439Z,32.70
2019-05-02T03:45:32.027Z,32.70
2019-05-02T03:46:28.484Z,33.40
2019-05-02T03:47:28.517Z,33.10
2019-05-02T03:48:28.556Z,33.60
2019-05-02T03:49:28.592Z,34.10
2019-05-02T03:50:32.403Z,33.50
2019-05-02T03:51:28.670Z,33.00
2019-05-02T03:52:28.721Z,34.90
2019-05-02T03:53:28.745Z,35.30
2019-05-02T03:54:28.784Z,34.60
2019-05-02T03:55:30.775Z,34.70
2019-05-02T03:56:28.859Z,34.60
2019-05-02T03:57:33.422Z,36.50
2019-05-02T03:58:28.938Z,36.40
2019-05-02T03:59:36.805Z,36.30
2019-05-02T04:00:29.016Z,36.60
2019-05-02T04:01:34.610Z,37.20
2019-05-02T04:02:29.099Z,37.60
2019-05-02T04:03:34.070Z,37.80
2019-05-02T04:04:29.165Z,38.10
2019-05-02T04:05:33.741Z,38.20
2019-05-02T04:06:29.250Z,37.00
2019-05-02T04:07:39.733Z,40.90
2019-05-02T04:08:29.320Z,38.60
2019-05-02T04:09:32.185Z,39.20
2019-05-02T04:10:29.399Z,39.20
2019-05-02T04:11:38.382Z,38.60
2019-05-02T04:12:32.819Z,37.80
2019-05-02T04:13:30.117Z,36.70
2019-05-02T04:14:37.877Z,40.50
2019-05-02T04:15:35.257Z,44.20
2019-05-02T04:16:29.639Z,41.80
2019-05-02T04:17:35.754Z,42.40
2019-05-02T04:18:29.712Z,45.60
2019-05-02T04:19:34.825Z,42.90
2019-05-02T04:20:29.785Z,43.90
2019-05-02T04:21:29.828Z,43.90
2019-05-02T04:22:29.859Z,44.30
2019-05-02T04:23:29.989Z,44.80
2019-05-02T04:24:29.936Z,44.60
2019-05-02T04:25:34.022Z,42.50
2019-05-02T04:26:30.014Z,42.10
2019-05-02T04:27:34.191Z,43.20
2019-05-02T04:28:30.091Z,41.50
2019-05-02T04:29:31.225Z,40.70
2019-05-02T04:30:30.169Z,41.70
2019-05-02T04:31:32.281Z,42.50
2019-05-02T04:32:30.247Z,42.20
2019-05-02T04:33:35.072Z,41.60
2019-05-02T04:34:30.328Z,42.20
2019-05-02T04:35:34.833Z,40.50
2019-05-02T04:36:30.402Z,42.30
2019-05-02T04:37:34.507Z,41.00
2019-05-02T04:38:39.106Z,41.10
2019-05-02T04:39:30.519Z,38.70
2019-05-02T04:40:34.809Z,38.70
2019-05-02T04:41:33.603Z,39.60
2019-05-02T04:42:30.638Z,37.90
2019-05-02T04:43:30.682Z,38.80
2019-05-02T04:44:40.701Z,39.10
2019-05-02T04:45:47.346Z,39.50
2019-05-02T04:46:31.352Z,41.00
2019-05-02T04:47:30.839Z,39.20
2019-05-02T04:48:34.586Z,38.80
2019-05-02T04:49:35.572Z,39.40
2019-05-02T04:50:30.947Z,37.50
2019-05-02T04:51:31.956Z,39.40
2019-05-02T04:52:31.032Z,38.70
2019-05-02T04:53:36.651Z,36.70
2019-05-02T04:54:32.564Z,36.50
2019-05-02T04:55:33.454Z,36.00
2019-05-02T04:56:31.192Z,37.20
2019-05-02T04:57:37.020Z,35.50
2019-05-02T04:58:34.804Z,34.60
2019-05-02T04:59:33.272Z,45.00
2019-05-02T05:00:31.340Z,39.00
2019-05-02T05:01:41.929Z,37.90
2019-05-02T05:02:36.476Z,41.60
2019-05-02T05:03:31.454Z,37.80
2019-05-02T05:04:33.272Z,38.70
2019-05-02T05:05:31.535Z,39.80
2019-05-02T05:06:31.574Z,38.90
2019-05-02T05:07:40.948Z,37.10
2019-05-02T05:08:31.995Z,36.60
2019-05-02T05:09:31.699Z,35.20
2019-05-02T05:10:40.151Z,36.50
2019-05-02T05:11:31.768Z,34.90
2019-05-02T05:12:32.593Z,32.20
2019-05-02T05:13:31.848Z,33.30
2019-05-02T05:14:39.245Z,32.30
2019-05-02T05:15:38.301Z,34.30
2019-05-02T05:16:32.016Z,34.60
2019-05-02T05:17:34.056Z,34.60
2019-05-02T05:18:32.043Z,34.70
2019-05-02T05:19:32.900Z,36.00
2019-05-02T05:20:32.121Z,37.00
2019-05-02T05:21:32.161Z,37.60
2019-05-02T05:22:36.485Z,37.50
2019-05-02T05:23:32.239Z,37.80
2019-05-02T05:24:32.796Z,36.30
2019-05-02T05:25:32.317Z,37.40
2019-05-02T05:26:33.960Z,37.30
2019-05-02T05:27:32.398Z,36.90
2019-05-02T05:28:35.023Z,36.30
2019-05-02T05:29:32.478Z,36.50
2019-05-02T05:30:32.517Z,35.90
2019-05-02T05:31:32.554Z,36.50
2019-05-02T05:32:32.600Z,37.10
2019-05-02T05:33:32.643Z,35.30
2019-05-02T05:34:32.920Z,36.70
2019-05-02T05:35:32.714Z,36.70
2019-05-02T05:36:34.066Z,36.40
2019-05-02T05:37:32.794Z,37.50
2019-05-02T05:38:35.890Z,36.40
2019-05-02T05:39:32.871Z,38.10
2019-05-02T05:40:32.913Z,38.20
2019-05-02T05:41:32.951Z,37.70
2019-05-02T05:42:33.487Z,38.00
2019-05-02T05:43:33.029Z,36.70
2019-05-02T05:44:33.069Z,38.20
2019-05-02T05:45:33.109Z,37.30
2019-05-02T05:46:37.728Z,38.20
2019-05-02T05:47:33.220Z,37.50
2019-05-02T05:48:39.134Z,37.90
2019-05-02T05:49:33.268Z,37.70
2019-05-02T05:50:37.700Z,37.80
2019-05-02T05:51:33.347Z,39.80
2019-05-02T05:52:38.646Z,37.40
2019-05-02T05:53:33.433Z,38.50
2019-05-02T05:54:40.431Z,38.80
2019-05-02T05:55:33.507Z,38.20
2019-05-02T05:56:39.718Z,38.70
2019-05-02T05:57:33.588Z,38.70
2019-05-02T05:58:33.626Z,40.20
2019-05-02T05:59:33.673Z,40.60
2019-05-02T06:00:33.709Z,39.30
2019-05-02T06:01:35.813Z,39.90
2019-05-02T06:02:50.919Z,39.30
2019-05-02T06:03:38.465Z,38.70
2019-05-02T06:04:33.864Z,38.70
2019-05-02T06:05:38.459Z,38.20
2019-05-02T06:06:33.945Z,37.60
2019-05-02T06:07:41.137Z,37.90
2019-05-02T06:08:34.035Z,38.80
2019-05-02T06:09:34.066Z,37.50
2019-05-02T06:10:34.109Z,37.00
2019-05-02T06:11:34.145Z,38.40
2019-05-02T06:12:35.603Z,39.80
2019-05-02T06:13:34.226Z,40.10
2019-05-02T06:14:34.804Z,40.00
2019-05-02T06:15:38.873Z,41.20
2019-05-02T06:16:35.417Z,39.00
2019-05-02T06:17:34.388Z,39.00
2019-05-02T06:18:36.396Z,37.90
2019-05-02T06:19:34.468Z,38.20
2019-05-02T06:20:34.508Z,39.40
2019-05-02T06:21:34.557Z,38.70
2019-05-02T06:22:34.590Z,39.30
2019-05-02T06:23:36.394Z,40.60
2019-05-02T06:24:34.672Z,40.50
2019-05-02T06:25:36.770Z,39.60
2019-05-02T06:26:34.756Z,41.30
2019-05-02T06:27:34.794Z,41.60
2019-05-02T06:28:36.220Z,41.60
2019-05-02T06:29:34.880Z,42.40
2019-05-02T06:30:34.932Z,42.20
2019-05-02T06:31:38.202Z,42.40
2019-05-02T06:32:35.000Z,43.30
2019-05-02T06:33:35.042Z,42.10
2019-05-02T06:34:38.738Z,40.80
2019-05-02T06:35:35.122Z,39.50
2019-05-02T06:36:36.833Z,40.40
2019-05-02T06:37:35.214Z,39.80
2019-05-02T06:38:35.250Z,40.20
2019-05-02T06:39:35.288Z,40.20
2019-05-02T06:40:39.417Z,39.00
2019-05-02T06:41:35.428Z,40.70
2019-05-02T06:42:37.899Z,43.00
2019-05-02T06:43:35.451Z,40.10
2019-05-02T06:44:35.502Z,41.00
2019-05-02T06:45:37.566Z,40.50
2019-05-02T06:46:35.576Z,39.80
2019-05-02T06:47:35.893Z,40.00
2019-05-02T06:48:35.659Z,40.40
2019-05-02T06:49:35.701Z,41.00
2019-05-02T06:50:38.838Z,40.60
2019-05-02T06:51:35.784Z,41.60
2019-05-02T06:52:35.825Z,41.20
2019-05-02T06:53:35.872Z,41.00
2019-05-02T06:54:35.909Z,40.90
2019-05-02T06:55:38.526Z,39.70
2019-05-02T06:56:35.992Z,40.70
2019-05-02T06:57:36.044Z,42.30
2019-05-02T06:58:37.072Z,42.10
2019-05-02T06:59:36.125Z,43.40
2019-05-02T07:00:55.201Z,42.90
2019-05-02T07:01:36.200Z,43.90
2019-05-02T07:02:36.243Z,43.80
2019-05-02T07:03:36.285Z,41.80
2019-05-02T07:04:36.328Z,42.20
2019-05-02T07:05:36.369Z,43.30
2019-05-02T07:06:55.928Z,43.20
2019-05-02T07:07:37.253Z,44.90
2019-05-02T07:08:36.501Z,43.60
2019-05-02T07:09:41.023Z,44.20
2019-05-02T07:10:44.414Z,45.20
2019-05-02T07:11:38.953Z,45.80
2019-05-02T07:12:36.680Z,45.00
2019-05-02T07:13:42.060Z,46.40
2019-05-02T07:14:36.748Z,45.10
2019-05-02T07:15:38.551Z,43.90
2019-05-02T07:16:38.766Z,45.40
2019-05-02T07:17:38.389Z,44.60
2019-05-02T07:18:36.914Z,47.80
2019-05-02T07:19:36.955Z,45.70
2019-05-02T07:20:40.662Z,47.30
2019-05-02T07:21:37.044Z,47.00
2019-05-02T07:22:38.760Z,49.60
2019-05-02T07:23:37.224Z,49.30
2019-05-02T07:24:37.165Z,49.00
2019-05-02T07:25:39.065Z,49.30
2019-05-02T07:26:37.251Z,46.60
2019-05-02T07:27:39.186Z,48.10
2019-05-02T07:28:40.457Z,49.30
2019-05-02T07:29:37.379Z,48.70
2019-05-02T07:30:37.419Z,49.30
2019-05-02T07:31:37.461Z,48.30
2019-05-02T07:32:37.501Z,47.50
2019-05-02T07:33:38.776Z,49.10
2019-05-02T07:34:37.586Z,50.20
2019-05-02T07:35:37.626Z,50.10
2019-05-02T07:36:38.369Z,49.70
2019-05-02T07:37:37.713Z,48.80
2019-05-02T07:38:37.754Z,48.60
2019-05-02T07:39:40.927Z,48.10
2019-05-02T07:40:37.837Z,48.10
2019-05-02T07:41:37.877Z,50.00
2019-05-02T07:42:41.898Z,49.60
2019-05-02T07:43:37.963Z,49.20
2019-05-02T07:44:38.011Z,49.20
2019-05-02T07:45:40.205Z,48.60
2019-05-02T07:46:50.707Z,50.40
2019-05-02T07:47:40.290Z,49.60
2019-05-02T07:48:38.173Z,49.60
2019-05-02T07:49:38.214Z,48.10
2019-05-02T07:50:41.270Z,49.80
2019-05-02T07:51:38.298Z,49.60
2019-05-02T07:52:40.919Z,49.30
2019-05-02T07:53:38.382Z,50.50
2019-05-02T07:54:38.426Z,50.50
2019-05-02T07:55:40.851Z,49.10
2019-05-02T07:56:38.509Z,49.50
2019-05-02T07:57:38.563Z,49.40
2019-05-02T07:58:46.716Z,50.80
2019-05-02T07:59:38.634Z,52.10
2019-05-02T08:00:38.684Z,51.20
2019-05-02T08:01:38.721Z,50.40
2019-05-02T08:02:38.764Z,50.50
2019-05-02T08:03:38.805Z,49.40
2019-05-02T08:04:43.616Z,51.70
2019-05-02T08:05:38.900Z,50.60
2019-05-02T08:06:40.192Z,49.60
2019-05-02T08:07:38.974Z,50.10
2019-05-02T08:08:39.017Z,51.50
2019-05-02T08:09:43.596Z,51.00
2019-05-02T08:10:39.101Z,50.10
2019-05-02T08:11:39.154Z,50.20
2019-05-02T08:12:39.202Z,50.50
2019-05-02T08:13:39.227Z,49.80
2019-05-02T08:14:39.275Z,49.90
2019-05-02T08:15:39.313Z,49.90
2019-05-02T08:16:39.377Z,49.90
2019-05-02T08:17:39.395Z,50.00
2019-05-02T08:18:39.439Z,50.80
2019-05-02T08:19:41.893Z,50.20
2019-05-02T08:20:39.524Z,50.80
2019-05-02T08:21:39.567Z,48.40
2019-05-02T08:22:44.022Z,49.00
2019-05-02T08:23:39.654Z,50.20
2019-05-02T08:24:39.698Z,48.10
2019-05-02T08:25:41.552Z,47.40
2019-05-02T08:26:39.778Z,49.30
2019-05-02T08:27:39.820Z,50.60
2019-05-02T08:28:39.864Z,50.00
2019-05-02T08:29:39.906Z,49.50
2019-05-02T08:30:40.379Z,48.70
2019-05-02T08:31:39.989Z,49.40
2019-05-02T08:32:40.034Z,50.70
2019-05-02T08:33:40.076Z,49.20
2019-05-02T08:34:40.121Z,48.80
2019-05-02T08:35:40.161Z,47.80
2019-05-02T08:36:40.205Z,47.60
2019-05-02T08:37:40.941Z,46.90
2019-05-02T08:38:40.290Z,47.10
2019-05-02T08:39:40.338Z,47.20
2019-05-02T08:40:42.262Z,46.90
2019-05-02T08:41:40.416Z,46.30
2019-05-02T08:42:40.467Z,46.30
2019-05-02T08:43:44.875Z,46.40
2019-05-02T08:44:50.584Z,46.10
2019-05-02T08:45:40.587Z,46.20
2019-05-02T08:46:40.639Z,47.70
2019-05-02T08:47:40.674Z,48.60
2019-05-02T08:48:41.730Z,47.50
2019-05-02T08:49:42.499Z,47.40
2019-05-02T08:50:40.802Z,47.60
2019-05-02T08:51:41.589Z,47.20
2019-05-02T08:52:42.390Z,46.40
2019-05-02T08:53:40.935Z,46.90
2019-05-02T08:54:40.974Z,48.10
2019-05-02T08:55:44.946Z,46.50
2019-05-02T08:56:41.061Z,45.50
2019-05-02T08:57:41.104Z,43.70
2019-05-02T08:58:44.882Z,43.50
2019-05-02T08:59:41.190Z,42.40
2019-05-02T09:00:41.242Z,42.90
2019-05-02T09:01:44.785Z,42.20
2019-05-02T09:02:42.119Z,40.10
2019-05-02T09:03:54.842Z,40.50
2019-05-02T09:04:41.406Z,39.80
2019-05-02T09:05:46.378Z,40.60
2019-05-02T09:06:41.492Z,40.30
2019-05-02T09:07:43.058Z,39.60
2019-05-02T09:08:41.578Z,39.30
2019-05-02T09:09:41.626Z,38.10
2019-05-02T09:10:42.498Z,38.40
2019-05-02T09:11:43.883Z,37.20
2019-05-02T09:12:45.280Z,35.00
2019-05-02T09:13:42.266Z,36.20
2019-05-02T09:14:42.622Z,36.20
2019-05-02T09:15:49.819Z,35.40
2019-05-02T09:16:42.756Z,34.60
2019-05-02T09:17:44.720Z,34.60
2019-05-02T09:18:50.530Z,31.20
2019-05-02T09:19:42.980Z,34.30
2019-05-02T09:20:42.419Z,33.30
2019-05-02T09:21:42.901Z,33.00
2019-05-02T09:22:46.624Z,32.20
2019-05-02T09:23:44.019Z,29.80
2019-05-02T09:24:44.456Z,29.90
2019-05-02T09:25:42.986Z,31.90
2019-05-02T09:26:42.647Z,30.90
2019-05-02T09:27:42.402Z,33.60
2019-05-02T09:28:42.444Z,33.00
2019-05-02T09:29:45.882Z,32.00
2019-05-02T09:30:42.540Z,31.90
2019-05-02T09:31:46.040Z,31.70
2019-05-02T09:32:42.615Z,32.00
2019-05-02T09:33:46.826Z,30.30
2019-05-02T09:34:42.703Z,31.10
2019-05-02T09:35:42.746Z,31.80
2019-05-02T09:36:42.788Z,30.00
2019-05-02T09:37:42.834Z,30.10
2019-05-02T09:38:42.904Z,30.40
2019-05-02T09:39:42.921Z,32.00
2019-05-02T09:40:47.172Z,32.90
2019-05-02T09:41:43.007Z,31.20
2019-05-02T09:42:47.265Z,32.40
2019-05-02T09:43:43.101Z,31.70
2019-05-02T09:44:43.139Z,30.70
2019-05-02T09:45:44.013Z,30.80
2019-05-02T09:46:47.538Z,30.70
2019-05-02T09:47:56.596Z,32.20
2019-05-02T09:48:43.315Z,32.40
2019-05-02T09:49:48.878Z,31.70
2019-05-02T09:50:43.407Z,31.80
2019-05-02T09:51:45.582Z,31.30
2019-05-02T09:52:44.218Z,32.50
2019-05-02T09:53:43.535Z,31.50
2019-05-02T09:54:46.084Z,32.00
2019-05-02T09:55:50.076Z,32.90
2019-05-02T09:56:43.678Z,32.40
2019-05-02T09:57:43.714Z,31.90
2019-05-02T09:58:43.761Z,29.80
2019-05-02T09:59:50.434Z,30.50
2019-05-02T10:00:43.850Z,32.20
2019-05-02T10:01:43.895Z,31.10
2019-05-02T10:02:43.939Z,32.70
2019-05-02T10:03:43.987Z,30.40
2019-05-02T10:04:44.202Z,32.70
2019-05-02T10:05:44.079Z,30.80
2019-05-02T10:06:44.118Z,30.70
2019-05-02T10:07:44.165Z,32.50
2019-05-02T10:08:46.586Z,32.50
2019-05-02T10:09:44.253Z,33.30
2019-05-02T10:10:46.018Z,32.40
2019-05-02T10:11:44.345Z,32.60
2019-05-02T10:12:44.392Z,31.50
2019-05-02T10:13:44.445Z,32.70
2019-05-02T10:14:44.478Z,32.00
2019-05-02T10:15:44.525Z,31.90
2019-05-02T10:16:44.588Z,32.20
2019-05-02T10:17:46.758Z,32.10
2019-05-02T10:18:44.662Z,32.20
2019-05-02T10:19:49.166Z,32.50
2019-05-02T10:20:44.752Z,30.10
2019-05-02T10:21:46.946Z,31.50
2019-05-02T10:22:44.842Z,30.60
2019-05-02T10:23:44.884Z,31.80
2019-05-02T10:24:44.928Z,30.20
2019-05-02T10:25:46.946Z,31.40
2019-05-02T10:26:45.021Z,31.00
2019-05-02T10:27:47.535Z,32.00
2019-05-02T10:28:49.325Z,30.40
2019-05-02T10:29:45.152Z,31.90
2019-05-02T10:30:47.378Z,28.60
2019-05-02T10:31:45.260Z,30.70
2019-05-02T10:32:47.235Z,32.90
2019-05-02T10:33:45.332Z,31.30
2019-05-02T10:34:47.479Z,33.20
2019-05-02T10:35:45.421Z,33.40
2019-05-02T10:36:45.623Z,33.50
2019-05-02T10:37:45.528Z,32.90
2019-05-02T10:38:49.028Z,34.70
2019-05-02T10:39:45.599Z,34.10
2019-05-02T10:40:48.444Z,33.20
2019-05-02T10:41:45.688Z,34.00
2019-05-02T10:42:45.741Z,32.80
2019-05-02T10:43:46.947Z,33.40
2019-05-02T10:44:45.822Z,33.10
2019-05-02T10:45:47.420Z,33.10
2019-05-02T10:46:45.912Z,31.60
2019-05-02T10:47:45.964Z,32.10
2019-05-02T10:48:45.999Z,33.70
2019-05-02T10:49:46.045Z,34.30
2019-05-02T10:50:46.090Z,32.70
2019-05-02T10:51:49.699Z,36.10
2019-05-02T10:52:46.181Z,34.00
2019-05-02T10:53:47.066Z,31.90
2019-05-02T10:54:46.270Z,31.80
2019-05-02T10:55:46.313Z,32.40
2019-05-02T10:56:46.358Z,32.10
2019-05-02T10:57:46.409Z,30.40
2019-05-02T10:58:46.453Z,23.70
2019-05-02T10:59:46.504Z,25.60
2019-05-02T11:00:46.544Z,28.30
2019-05-02T11:01:46.586Z,27.60
2019-05-02T11:02:46.643Z,28.40
2019-05-02T11:03:47.568Z,28.40
2019-05-02T11:04:46.723Z,28.00
2019-05-02T11:05:46.769Z,27.70
2019-05-02T11:06:46.826Z,29.80
2019-05-02T11:07:46.858Z,29.90
2019-05-02T11:08:46.906Z,29.50
2019-05-02T11:09:46.954Z,28.90
2019-05-02T11:10:46.997Z,26.90
2019-05-02T11:11:47.045Z,29.10
2019-05-02T11:12:47.339Z,27.70
2019-05-02T11:13:47.137Z,27.50
2019-05-02T11:14:47.180Z,28.40
2019-05-02T11:15:47.227Z,27.00
2019-05-02T11:16:47.272Z,29.30
2019-05-02T11:17:47.319Z,25.60
2019-05-02T11:18:47.365Z,28.40
2019-05-02T11:19:47.408Z,28.50
2019-05-02T11:20:47.458Z,27.20
2019-05-02T11:21:56.497Z,27.00
2019-05-02T11:22:47.546Z,26.90
2019-05-02T11:23:47.689Z,26.10
2019-05-02T11:24:47.672Z,26.50
2019-05-02T11:25:47.680Z,25.90
2019-05-02T11:26:47.728Z,27.40
2019-05-02T11:27:47.771Z,27.00
2019-05-02T11:28:47.818Z,27.80
2019-05-02T11:29:47.863Z,27.50
2019-05-02T11:30:47.932Z,27.70
2019-05-02T11:31:47.955Z,27.90
2019-05-02T11:32:48.001Z,27.30
2019-05-02T11:33:48.053Z,27.50
2019-05-02T11:34:48.143Z,27.90
2019-05-02T11:35:49.375Z,27.20
2019-05-02T11:36:48.194Z,27.90
2019-05-02T11:37:48.230Z,27.70
2019-05-02T11:38:55.902Z,27.20
2019-05-02T11:39:52.267Z,27.30
2019-05-02T11:40:48.369Z,26.20
2019-05-02T11:41:48.516Z,27.50
2019-05-02T11:42:48.465Z,27.20
2019-05-02T11:43:48.520Z,27.70
2019-05-02T11:44:48.552Z,27.40
2019-05-02T11:45:48.616Z,27.50
2019-05-02T11:46:48.646Z,27.90
2019-05-02T11:47:48.691Z,26.90
2019-05-02T11:48:56.386Z,27.10
2019-05-02T11:49:52.084Z,27.40
2019-05-02T11:50:48.830Z,25.40
2019-05-02T11:51:55.319Z,26.60
2019-05-02T11:52:48.929Z,25.00
2019-05-02T11:53:48.979Z,24.00
2019-05-02T11:54:49.019Z,24.30
2019-05-02T11:55:49.060Z,23.70
2019-05-02T11:56:50.497Z,22.80
2019-05-02T11:57:49.160Z,24.30
2019-05-02T11:58:50.258Z,23.40
2019-05-02T11:59:49.245Z,22.60
2019-05-02T12:00:49.745Z,23.00
2019-05-02T12:01:59.100Z,23.50
2019-05-02T12:02:56.217Z,22.60
2019-05-02T12:03:49.433Z,22.80
2019-05-02T12:04:54.287Z,22.50
2019-05-02T12:05:49.529Z,20.50
2019-05-02T12:06:59.016Z,21.60
2019-05-02T12:07:49.622Z,20.90
2019-05-02T12:08:49.659Z,21.60
2019-05-02T12:09:52.044Z,22.00
2019-05-02T12:10:51.774Z,20.60
2019-05-02T12:11:54.972Z,21.10
2019-05-02T12:12:49.841Z,21.10
2019-05-02T12:13:52.813Z,22.70
2019-05-02T12:14:49.933Z,21.10
2019-05-02T12:15:51.853Z,21.90
2019-05-02T12:16:50.022Z,20.70
2019-05-02T12:17:51.640Z,20.90
2019-05-02T12:18:50.115Z,20.90
2019-05-02T12:19:52.221Z,22.00
2019-05-02T12:20:52.056Z,21.40
2019-05-02T12:21:50.312Z,20.70
2019-05-02T12:22:50.322Z,20.90
2019-05-02T12:23:52.000Z,21.50
2019-05-02T12:24:51.911Z,21.60
2019-05-02T12:25:51.994Z,21.10
2019-05-02T12:26:52.688Z,21.70
2019-05-02T12:27:52.560Z,22.70
2019-05-02T12:28:52.437Z,22.60
2019-05-02T12:29:57.913Z,22.70
2019-05-02T12:30:51.949Z,22.60
2019-05-02T12:31:54.704Z,22.10
2019-05-02T12:32:52.985Z,22.20
2019-05-02T12:33:51.611Z,22.40
2019-05-02T12:34:52.641Z,21.40
2019-05-02T12:35:52.493Z,22.30
2019-05-02T12:36:52.286Z,22.60
2019-05-02T12:37:52.426Z,23.20
2019-05-02T12:38:52.742Z,22.10
2019-05-02T12:39:51.698Z,22.00
2019-05-02T12:40:52.042Z,21.00
2019-05-02T12:41:53.547Z,21.70
2019-05-02T12:42:52.576Z,20.30
2019-05-02T12:43:52.466Z,21.50
2019-05-02T12:44:53.131Z,22.30
2019-05-02T12:45:52.760Z,21.10
2019-05-02T12:46:51.846Z,22.90
2019-05-02T12:47:52.315Z,22.10
2019-05-02T12:48:52.141Z,22.90
2019-05-02T12:49:52.040Z,23.00
2019-05-02T12:50:52.769Z,22.20
2019-05-02T12:51:52.482Z,22.30
2019-05-02T12:52:52.151Z,22.00